sensor_id;sensor_type;location;lat;lon;timestamp;P1;durP1;ratioP1;P2;durP2;ratioP2
37407;SDS011;24866;50.248;8.252;2023-04-19T00:00:01;8.40;;;5.03;;
37407;SDS011;24866;50.248;8.252;2023-04-19T00:02:33;8.55;;;5.82;;
37407;SDS011;24866;50.248;8.252;2023-04-19T00:05:04;8.00;;;4.80;;
37407;SDS011;24866;50.248;8.252;2023-04-19T00:07:35;11.75;;;6.28;;
37407;SDS011;24866;50.248;8.252;2023-04-19T00:10:07;6.80;;;5.07;;
37407;SDS011;24866;50.248;8.252;2023-04-19T00:12:39;9.98;;;6.32;;
37407;SDS011;24866;50.248;8.252;2023-04-19T00:15:09;8.60;;;5.30;;
37407;SDS011;24866;50.248;8.252;2023-04-19T00:17:39;8.85;;;6.13;;
37407;SDS011;24866;50.248;8.252;2023-04-19T00:20:10;9.25;;;5.63;;
37407;SDS011;24866;50.248;8.252;2023-04-19T00:22:43;8.75;;;6.40;;
37407;SDS011;24866;50.248;8.252;2023-04-19T00:25:16;9.05;;;6.40;;
37407;SDS011;24866;50.248;8.252;2023-04-19T00:27:47;8.55;;;6.22;;
37407;SDS011;24866;50.248;8.252;2023-04-19T00:30:21;8.02;;;5.43;;
37407;SDS011;24866;50.248;8.252;2023-04-19T00:32:51;9.20;;;6.05;;
37407;SDS011;24866;50.248;8.252;2023-04-19T00:35:21;8.80;;;5.82;;
37407;SDS011;24866;50.248;8.252;2023-04-19T00:37:51;9.35;;;6.63;;
37407;SDS011;24866;50.248;8.252;2023-04-19T00:40:23;9.57;;;6.30;;
37407;SDS011;24866;50.248;8.252;2023-04-19T00:42:53;9.98;;;6.63;;
37407;SDS011;24866;50.248;8.252;2023-04-19T00:45:23;9.80;;;6.78;;
37407;SDS011;24866;50.248;8.252;2023-04-19T00:47:54;10.43;;;7.25;;
37407;SDS011;24866;50.248;8.252;2023-04-19T00:50:25;11.10;;;7.25;;
37407;SDS011;24866;50.248;8.252;2023-04-19T00:52:55;11.40;;;7.47;;
37407;SDS011;24866;50.248;8.252;2023-04-19T00:55:27;11.35;;;8.25;;
37407;SDS011;24866;50.248;8.252;2023-04-19T00:57:58;13.05;;;8.65;;
37407;SDS011;24866;50.248;8.252;2023-04-19T01:00:28;10.90;;;7.45;;
37407;SDS011;24866;50.248;8.252;2023-04-19T01:02:58;10.45;;;7.78;;
37407;SDS011;24866;50.248;8.252;2023-04-19T01:05:28;12.18;;;8.32;;
37407;SDS011;24866;50.248;8.252;2023-04-19T01:07:59;12.75;;;8.82;;
37407;SDS011;24866;50.248;8.252;2023-04-19T01:10:31;11.98;;;8.10;;
37407;SDS011;24866;50.248;8.252;2023-04-19T01:13:00;10.60;;;7.22;;
37407;SDS011;24866;50.248;8.252;2023-04-19T01:15:31;11.05;;;7.95;;
37407;SDS011;24866;50.248;8.252;2023-04-19T01:18:02;13.63;;;8.77;;
37407;SDS011;24866;50.248;8.252;2023-04-19T01:20:32;11.35;;;7.40;;
37407;SDS011;24866;50.248;8.252;2023-04-19T01:23:05;11.73;;;7.75;;
37407;SDS011;24866;50.248;8.252;2023-04-19T01:25:38;11.05;;;8.05;;
37407;SDS011;24866;50.248;8.252;2023-04-19T01:28:09;11.02;;;7.85;;
37407;SDS011;24866;50.248;8.252;2023-04-19T01:30:39;13.43;;;9.48;;
37407;SDS011;24866;50.248;8.252;2023-04-19T01:33:09;11.18;;;8.55;;
37407;SDS011;24866;50.248;8.252;2023-04-19T01:35:38;11.65;;;7.47;;
37407;SDS011;24866;50.248;8.252;2023-04-19T01:38:10;11.20;;;8.05;;
37407;SDS011;24866;50.248;8.252;2023-04-19T01:40:41;11.38;;;8.07;;
37407;SDS011;24866;50.248;8.252;2023-04-19T01:43:12;14.50;;;8.25;;
37407;SDS011;24866;50.248;8.252;2023-04-19T01:45:43;12.23;;;8.88;;
37407;SDS011;24866;50.248;8.252;2023-04-19T01:48:13;12.13;;;8.07;;
37407;SDS011;24866;50.248;8.252;2023-04-19T01:50:43;13.52;;;9.10;;
37407;SDS011;24866;50.248;8.252;2023-04-19T01:53:15;10.70;;;7.95;;
37407;SDS011;24866;50.248;8.252;2023-04-19T01:55:45;11.65;;;8.52;;
37407;SDS011;24866;50.248;8.252;2023-04-19T01:58:16;12.25;;;8.50;;
37407;SDS011;24866;50.248;8.252;2023-04-19T02:00:46;11.85;;;7.50;;
37407;SDS011;24866;50.248;8.252;2023-04-19T02:03:16;13.30;;;9.00;;
37407;SDS011;24866;50.248;8.252;2023-04-19T02:05:46;14.30;;;8.63;;
37407;SDS011;24866;50.248;8.252;2023-04-19T02:08:18;10.85;;;7.47;;
37407;SDS011;24866;50.248;8.252;2023-04-19T02:10:48;14.50;;;9.27;;
37407;SDS011;24866;50.248;8.252;2023-04-19T02:13:19;11.95;;;8.00;;
37407;SDS011;24866;50.248;8.252;2023-04-19T02:15:49;11.88;;;8.50;;
37407;SDS011;24866;50.248;8.252;2023-04-19T02:18:20;13.75;;;9.02;;
37407;SDS011;24866;50.248;8.252;2023-04-19T02:20:51;11.82;;;8.45;;
37407;SDS011;24866;50.248;8.252;2023-04-19T02:23:22;15.75;;;10.52;;
37407;SDS011;24866;50.248;8.252;2023-04-19T02:25:52;12.23;;;8.27;;
37407;SDS011;24866;50.248;8.252;2023-04-19T02:28:22;11.45;;;8.70;;
37407;SDS011;24866;50.248;8.252;2023-04-19T02:30:52;14.75;;;9.45;;
37407;SDS011;24866;50.248;8.252;2023-04-19T02:33:23;14.07;;;9.45;;
37407;SDS011;24866;50.248;8.252;2023-04-19T02:35:57;11.90;;;8.15;;
37407;SDS011;24866;50.248;8.252;2023-04-19T02:38:30;13.48;;;8.93;;
37407;SDS011;24866;50.248;8.252;2023-04-19T02:41:00;12.75;;;8.55;;
37407;SDS011;24866;50.248;8.252;2023-04-19T02:43:31;12.90;;;9.15;;
37407;SDS011;24866;50.248;8.252;2023-04-19T02:46:01;15.60;;;9.38;;
37407;SDS011;24866;50.248;8.252;2023-04-19T02:48:31;13.00;;;8.82;;
37407;SDS011;24866;50.248;8.252;2023-04-19T02:51:01;12.57;;;8.77;;
37407;SDS011;24866;50.248;8.252;2023-04-19T02:53:33;12.48;;;9.32;;
37407;SDS011;24866;50.248;8.252;2023-04-19T02:56:03;13.10;;;9.15;;
37407;SDS011;24866;50.248;8.252;2023-04-19T02:58:34;15.25;;;9.70;;
37407;SDS011;24866;50.248;8.252;2023-04-19T03:01:04;12.80;;;9.38;;
37407;SDS011;24866;50.248;8.252;2023-04-19T03:03:35;15.75;;;9.27;;
37407;SDS011;24866;50.248;8.252;2023-04-19T03:06:05;14.10;;;9.02;;
37407;SDS011;24866;50.248;8.252;2023-04-19T03:08:38;11.98;;;8.38;;
37407;SDS011;24866;50.248;8.252;2023-04-19T03:11:09;12.85;;;8.75;;
37407;SDS011;24866;50.248;8.252;2023-04-19T03:13:39;11.32;;;8.05;;
37407;SDS011;24866;50.248;8.252;2023-04-19T03:16:15;12.77;;;9.68;;
37407;SDS011;24866;50.248;8.252;2023-04-19T03:18:47;15.68;;;9.73;;
37407;SDS011;24866;50.248;8.252;2023-04-19T03:21:17;14.52;;;9.80;;
37407;SDS011;24866;50.248;8.252;2023-04-19T03:23:49;13.13;;;9.48;;
37407;SDS011;24866;50.248;8.252;2023-04-19T03:26:19;15.77;;;10.15;;
37407;SDS011;24866;50.248;8.252;2023-04-19T03:28:49;14.30;;;9.50;;
37407;SDS011;24866;50.248;8.252;2023-04-19T03:31:19;15.88;;;10.93;;
37407;SDS011;24866;50.248;8.252;2023-04-19T03:33:49;15.32;;;9.27;;
37407;SDS011;24866;50.248;8.252;2023-04-19T03:36:20;13.25;;;9.00;;
37407;SDS011;24866;50.248;8.252;2023-04-19T03:38:51;14.35;;;9.52;;
37407;SDS011;24866;50.248;8.252;2023-04-19T03:41:23;14.55;;;10.75;;
37407;SDS011;24866;50.248;8.252;2023-04-19T03:43:54;18.52;;;11.13;;
37407;SDS011;24866;50.248;8.252;2023-04-19T03:46:25;14.10;;;10.18;;
37407;SDS011;24866;50.248;8.252;2023-04-19T03:48:58;14.45;;;9.73;;
37407;SDS011;24866;50.248;8.252;2023-04-19T03:51:28;16.50;;;10.85;;
37407;SDS011;24866;50.248;8.252;2023-04-19T03:54:01;16.75;;;10.13;;
37407;SDS011;24866;50.248;8.252;2023-04-19T03:59:02;14.02;;;9.50;;
37407;SDS011;24866;50.248;8.252;2023-04-19T04:01:32;15.35;;;10.05;;
37407;SDS011;24866;50.248;8.252;2023-04-19T04:04:02;18.63;;;12.05;;
37407;SDS011;24866;50.248;8.252;2023-04-19T04:06:32;15.68;;;11.70;;
37407;SDS011;24866;50.248;8.252;2023-04-19T04:09:04;15.63;;;12.05;;
37407;SDS011;24866;50.248;8.252;2023-04-19T04:11:34;19.87;;;12.63;;
37407;SDS011;24866;50.248;8.252;2023-04-19T04:14:05;15.45;;;11.25;;
37407;SDS011;24866;50.248;8.252;2023-04-19T04:16:36;14.48;;;9.90;;
37407;SDS011;24866;50.248;8.252;2023-04-19T04:19:06;17.63;;;11.48;;
37407;SDS011;24866;50.248;8.252;2023-04-19T04:21:36;18.38;;;12.50;;
37407;SDS011;24866;50.248;8.252;2023-04-19T04:24:07;17.42;;;12.30;;
37407;SDS011;24866;50.248;8.252;2023-04-19T04:26:37;16.70;;;10.93;;
37407;SDS011;24866;50.248;8.252;2023-04-19T04:29:08;17.92;;;11.73;;
37407;SDS011;24866;50.248;8.252;2023-04-19T04:31:38;14.68;;;10.27;;
37407;SDS011;24866;50.248;8.252;2023-04-19T04:34:08;15.90;;;10.15;;
37407;SDS011;24866;50.248;8.252;2023-04-19T04:36:38;15.90;;;11.07;;
37407;SDS011;24866;50.248;8.252;2023-04-19T04:39:11;23.55;;;11.55;;
37407;SDS011;24866;50.248;8.252;2023-04-19T04:41:41;14.82;;;10.88;;
37407;SDS011;24866;50.248;8.252;2023-04-19T04:44:11;17.48;;;11.85;;
37407;SDS011;24866;50.248;8.252;2023-04-19T04:46:42;20.40;;;13.02;;
37407;SDS011;24866;50.248;8.252;2023-04-19T04:49:12;17.45;;;13.13;;
37407;SDS011;24866;50.248;8.252;2023-04-19T04:51:42;16.30;;;12.05;;
37407;SDS011;24866;50.248;8.252;2023-04-19T04:54:13;17.13;;;11.38;;
37407;SDS011;24866;50.248;8.252;2023-04-19T04:56:44;17.75;;;12.35;;
37407;SDS011;24866;50.248;8.252;2023-04-19T04:59:13;15.70;;;11.10;;
37407;SDS011;24866;50.248;8.252;2023-04-19T05:01:43;15.15;;;11.02;;
37407;SDS011;24866;50.248;8.252;2023-04-19T05:04:13;17.05;;;12.40;;
37407;SDS011;24866;50.248;8.252;2023-04-19T05:06:43;15.73;;;10.05;;
37407;SDS011;24866;50.248;8.252;2023-04-19T05:09:15;14.52;;;10.38;;
37407;SDS011;24866;50.248;8.252;2023-04-19T05:11:45;16.60;;;12.85;;
37407;SDS011;24866;50.248;8.252;2023-04-19T05:14:15;18.33;;;12.13;;
37407;SDS011;24866;50.248;8.252;2023-04-19T05:16:45;17.58;;;11.25;;
37407;SDS011;24866;50.248;8.252;2023-04-19T05:19:15;16.65;;;11.43;;
37407;SDS011;24866;50.248;8.252;2023-04-19T05:21:45;17.60;;;11.75;;
37407;SDS011;24866;50.248;8.252;2023-04-19T05:24:17;18.63;;;12.43;;
37407;SDS011;24866;50.248;8.252;2023-04-19T05:26:47;16.05;;;11.30;;
37407;SDS011;24866;50.248;8.252;2023-04-19T05:29:17;18.00;;;11.10;;
37407;SDS011;24866;50.248;8.252;2023-04-19T05:31:47;19.27;;;11.93;;
37407;SDS011;24866;50.248;8.252;2023-04-19T05:34:17;16.80;;;11.90;;
37407;SDS011;24866;50.248;8.252;2023-04-19T05:36:47;17.67;;;11.98;;
37407;SDS011;24866;50.248;8.252;2023-04-19T05:39:19;20.42;;;14.10;;
37407;SDS011;24866;50.248;8.252;2023-04-19T05:41:48;20.05;;;12.95;;
37407;SDS011;24866;50.248;8.252;2023-04-19T05:44:18;22.05;;;14.38;;
37407;SDS011;24866;50.248;8.252;2023-04-19T05:46:48;18.20;;;11.90;;
37407;SDS011;24866;50.248;8.252;2023-04-19T05:49:19;20.23;;;13.73;;
37407;SDS011;24866;50.248;8.252;2023-04-19T05:51:49;18.50;;;12.02;;
37407;SDS011;24866;50.248;8.252;2023-04-19T05:54:20;19.27;;;13.48;;
37407;SDS011;24866;50.248;8.252;2023-04-19T05:56:50;18.08;;;12.77;;
37407;SDS011;24866;50.248;8.252;2023-04-19T05:59:20;16.85;;;11.45;;
37407;SDS011;24866;50.248;8.252;2023-04-19T06:01:50;20.60;;;13.95;;
37407;SDS011;24866;50.248;8.252;2023-04-19T06:04:20;17.58;;;11.27;;
37407;SDS011;24866;50.248;8.252;2023-04-19T06:06:50;22.40;;;15.60;;
37407;SDS011;24866;50.248;8.252;2023-04-19T06:09:21;19.90;;;12.50;;
37407;SDS011;24866;50.248;8.252;2023-04-19T06:11:51;18.02;;;12.25;;
37407;SDS011;24866;50.248;8.252;2023-04-19T06:14:22;14.23;;;10.75;;
37407;SDS011;24866;50.248;8.252;2023-04-19T06:16:52;15.93;;;10.32;;
37407;SDS011;24866;50.248;8.252;2023-04-19T06:19:23;13.77;;;9.63;;
37407;SDS011;24866;50.248;8.252;2023-04-19T06:21:53;14.05;;;9.57;;
37407;SDS011;24866;50.248;8.252;2023-04-19T06:24:25;13.93;;;9.85;;
37407;SDS011;24866;50.248;8.252;2023-04-19T06:26:55;14.50;;;8.80;;
37407;SDS011;24866;50.248;8.252;2023-04-19T06:29:25;13.52;;;7.95;;
37407;SDS011;24866;50.248;8.252;2023-04-19T06:31:55;11.75;;;8.40;;
37407;SDS011;24866;50.248;8.252;2023-04-19T06:34:25;12.90;;;8.00;;
37407;SDS011;24866;50.248;8.252;2023-04-19T06:36:55;18.40;;;11.00;;
37407;SDS011;24866;50.248;8.252;2023-04-19T06:39:27;28.33;;;18.00;;
37407;SDS011;24866;50.248;8.252;2023-04-19T06:41:57;15.82;;;9.82;;
37407;SDS011;24866;50.248;8.252;2023-04-19T06:44:28;23.98;;;14.90;;
37407;SDS011;24866;50.248;8.252;2023-04-19T06:46:58;14.00;;;9.00;;
37407;SDS011;24866;50.248;8.252;2023-04-19T06:49:28;38.83;;;28.88;;
37407;SDS011;24866;50.248;8.252;2023-04-19T06:51:58;16.00;;;11.13;;
37407;SDS011;24866;50.248;8.252;2023-04-19T06:54:30;13.75;;;9.70;;
37407;SDS011;24866;50.248;8.252;2023-04-19T06:57:00;10.35;;;6.18;;
37407;SDS011;24866;50.248;8.252;2023-04-19T06:59:30;9.15;;;6.07;;
37407;SDS011;24866;50.248;8.252;2023-04-19T07:02:00;10.30;;;5.57;;
37407;SDS011;24866;50.248;8.252;2023-04-19T07:04:30;9.05;;;5.63;;
37407;SDS011;24866;50.248;8.252;2023-04-19T07:07:01;8.65;;;5.40;;
37407;SDS011;24866;50.248;8.252;2023-04-19T07:09:32;11.98;;;6.68;;
37407;SDS011;24866;50.248;8.252;2023-04-19T07:12:02;11.75;;;7.10;;
37407;SDS011;24866;50.248;8.252;2023-04-19T07:14:32;9.73;;;5.95;;
37407;SDS011;24866;50.248;8.252;2023-04-19T07:17:02;12.68;;;7.03;;
37407;SDS011;24866;50.248;8.252;2023-04-19T07:19:33;6.57;;;4.63;;
37407;SDS011;24866;50.248;8.252;2023-04-19T07:22:04;11.30;;;5.43;;
37407;SDS011;24866;50.248;8.252;2023-04-19T07:24:35;6.72;;;4.43;;
37407;SDS011;24866;50.248;8.252;2023-04-19T07:27:07;6.43;;;4.00;;
37407;SDS011;24866;50.248;8.252;2023-04-19T07:29:37;6.78;;;4.50;;
37407;SDS011;24866;50.248;8.252;2023-04-19T07:32:08;6.82;;;4.35;;
37407;SDS011;24866;50.248;8.252;2023-04-19T07:34:39;7.68;;;4.60;;
37407;SDS011;24866;50.248;8.252;2023-04-19T07:37:10;8.88;;;5.10;;
37407;SDS011;24866;50.248;8.252;2023-04-19T07:39:42;8.13;;;4.63;;
37407;SDS011;24866;50.248;8.252;2023-04-19T07:42:14;6.82;;;4.55;;
37407;SDS011;24866;50.248;8.252;2023-04-19T07:44:44;8.70;;;5.70;;
37407;SDS011;24866;50.248;8.252;2023-04-19T07:47:14;7.47;;;5.10;;
37407;SDS011;24866;50.248;8.252;2023-04-19T07:49:44;6.28;;;4.50;;
37407;SDS011;24866;50.248;8.252;2023-04-19T07:52:14;7.20;;;4.72;;
37407;SDS011;24866;50.248;8.252;2023-04-19T07:54:48;7.32;;;5.43;;
37407;SDS011;24866;50.248;8.252;2023-04-19T07:57:18;7.13;;;4.78;;
37407;SDS011;24866;50.248;8.252;2023-04-19T07:59:48;9.50;;;5.70;;
37407;SDS011;24866;50.248;8.252;2023-04-19T08:02:21;9.95;;;4.25;;
37407;SDS011;24866;50.248;8.252;2023-04-19T08:04:51;8.00;;;5.28;;
37407;SDS011;24866;50.248;8.252;2023-04-19T08:07:22;7.20;;;4.50;;
37407;SDS011;24866;50.248;8.252;2023-04-19T08:09:54;6.70;;;3.90;;
37407;SDS011;24866;50.248;8.252;2023-04-19T08:12:25;8.88;;;4.20;;
37407;SDS011;24866;50.248;8.252;2023-04-19T08:14:56;5.15;;;3.67;;
37407;SDS011;24866;50.248;8.252;2023-04-19T08:17:26;7.10;;;4.22;;
37407;SDS011;24866;50.248;8.252;2023-04-19T08:19:56;6.72;;;4.03;;
37407;SDS011;24866;50.248;8.252;2023-04-19T08:22:27;6.82;;;3.95;;
37407;SDS011;24866;50.248;8.252;2023-04-19T08:24:58;8.45;;;4.00;;
37407;SDS011;24866;50.248;8.252;2023-04-19T08:27:28;4.80;;;3.65;;
37407;SDS011;24866;50.248;8.252;2023-04-19T08:29:58;6.10;;;4.00;;
37407;SDS011;24866;50.248;8.252;2023-04-19T08:32:28;5.20;;;3.05;;
37407;SDS011;24866;50.248;8.252;2023-04-19T08:34:58;7.57;;;4.90;;
37407;SDS011;24866;50.248;8.252;2023-04-19T08:37:29;5.35;;;3.55;;
37407;SDS011;24866;50.248;8.252;2023-04-19T08:40:01;6.72;;;3.40;;
37407;SDS011;24866;50.248;8.252;2023-04-19T08:42:33;7.80;;;4.65;;
37407;SDS011;24866;50.248;8.252;2023-04-19T08:45:03;7.25;;;4.03;;
37407;SDS011;24866;50.248;8.252;2023-04-19T08:47:39;9.43;;;5.93;;
37407;SDS011;24866;50.248;8.252;2023-04-19T08:50:10;11.65;;;7.88;;
37407;SDS011;24866;50.248;8.252;2023-04-19T08:52:39;13.27;;;8.35;;
37407;SDS011;24866;50.248;8.252;2023-04-19T08:55:12;5.47;;;3.45;;
37407;SDS011;24866;50.248;8.252;2023-04-19T08:57:43;7.57;;;4.28;;
37407;SDS011;24866;50.248;8.252;2023-04-19T09:00:15;7.05;;;4.22;;
37407;SDS011;24866;50.248;8.252;2023-04-19T09:02:50;8.07;;;3.72;;
37407;SDS011;24866;50.248;8.252;2023-04-19T09:05:22;10.30;;;4.30;;
37407;SDS011;24866;50.248;8.252;2023-04-19T09:07:52;6.47;;;4.22;;
37407;SDS011;24866;50.248;8.252;2023-04-19T09:10:24;5.15;;;3.50;;
37407;SDS011;24866;50.248;8.252;2023-04-19T09:13:01;6.65;;;3.80;;
37407;SDS011;24866;50.248;8.252;2023-04-19T09:15:36;6.72;;;4.10;;
37407;SDS011;24866;50.248;8.252;2023-04-19T09:18:09;6.78;;;4.43;;
37407;SDS011;24866;50.248;8.252;2023-04-19T09:20:41;6.45;;;4.75;;
37407;SDS011;24866;50.248;8.252;2023-04-19T09:23:13;7.07;;;4.50;;
37407;SDS011;24866;50.248;8.252;2023-04-19T09:28:24;6.82;;;3.53;;
37407;SDS011;24866;50.248;8.252;2023-04-19T09:30:55;7.88;;;4.30;;
37407;SDS011;24866;50.248;8.252;2023-04-19T09:33:32;7.25;;;4.22;;
37407;SDS011;24866;50.248;8.252;2023-04-19T09:36:03;6.07;;;4.43;;
37407;SDS011;24866;50.248;8.252;2023-04-19T09:38:44;7.65;;;4.47;;
37407;SDS011;24866;50.248;8.252;2023-04-19T09:41:17;8.68;;;4.53;;
37407;SDS011;24866;50.248;8.252;2023-04-19T09:43:48;7.28;;;4.28;;
37407;SDS011;24866;50.248;8.252;2023-04-19T09:49:16;7.35;;;4.85;;
37407;SDS011;24866;50.248;8.252;2023-04-19T09:51:49;7.40;;;4.40;;
37407;SDS011;24866;50.248;8.252;2023-04-19T09:54:21;9.93;;;5.35;;
37407;SDS011;24866;50.248;8.252;2023-04-19T09:56:55;8.55;;;4.85;;
37407;SDS011;24866;50.248;8.252;2023-04-19T09:59:25;8.65;;;4.30;;
37407;SDS011;24866;50.248;8.252;2023-04-19T10:01:55;8.65;;;5.28;;
37407;SDS011;24866;50.248;8.252;2023-04-19T10:04:29;7.07;;;4.32;;
37407;SDS011;24866;50.248;8.252;2023-04-19T10:07:00;8.07;;;4.38;;
37407;SDS011;24866;50.248;8.252;2023-04-19T10:09:30;7.60;;;4.90;;
37407;SDS011;24866;50.248;8.252;2023-04-19T10:12:05;8.00;;;4.05;;
37407;SDS011;24866;50.248;8.252;2023-04-19T10:14:36;9.82;;;5.03;;
37407;SDS011;24866;50.248;8.252;2023-04-19T10:17:08;9.98;;;5.07;;
37407;SDS011;24866;50.248;8.252;2023-04-19T10:19:39;9.35;;;5.03;;
37407;SDS011;24866;50.248;8.252;2023-04-19T10:22:10;8.88;;;4.75;;
37407;SDS011;24866;50.248;8.252;2023-04-19T10:24:52;6.75;;;4.35;;
37407;SDS011;24866;50.248;8.252;2023-04-19T10:27:39;8.02;;;4.57;;
37407;SDS011;24866;50.248;8.252;2023-04-19T10:30:17;6.13;;;4.10;;
37407;SDS011;24866;50.248;8.252;2023-04-19T10:32:51;6.63;;;3.90;;
37407;SDS011;24866;50.248;8.252;2023-04-19T10:35:24;7.25;;;4.55;;
37407;SDS011;24866;50.248;8.252;2023-04-19T10:38:07;8.77;;;4.78;;
37407;SDS011;24866;50.248;8.252;2023-04-19T10:40:58;8.00;;;3.57;;
37407;SDS011;24866;50.248;8.252;2023-04-19T10:43:30;7.95;;;4.65;;
37407;SDS011;24866;50.248;8.252;2023-04-19T10:46:02;7.40;;;5.28;;
37407;SDS011;24866;50.248;8.252;2023-04-19T10:48:37;7.97;;;4.45;;
37407;SDS011;24866;50.248;8.252;2023-04-19T10:51:22;7.05;;;4.47;;
37407;SDS011;24866;50.248;8.252;2023-04-19T10:53:56;7.60;;;3.75;;
37407;SDS011;24866;50.248;8.252;2023-04-19T10:59:33;5.97;;;3.58;;
37407;SDS011;24866;50.248;8.252;2023-04-19T11:05:03;8.50;;;4.32;;
37407;SDS011;24866;50.248;8.252;2023-04-19T11:07:36;6.75;;;4.28;;
37407;SDS011;24866;50.248;8.252;2023-04-19T11:10:08;8.63;;;4.00;;
37407;SDS011;24866;50.248;8.252;2023-04-19T11:12:42;6.60;;;4.50;;
37407;SDS011;24866;50.248;8.252;2023-04-19T11:15:14;6.68;;;4.03;;
37407;SDS011;24866;50.248;8.252;2023-04-19T11:17:48;8.02;;;4.05;;
37407;SDS011;24866;50.248;8.252;2023-04-19T11:20:21;8.65;;;4.22;;
37407;SDS011;24866;50.248;8.252;2023-04-19T11:22:52;9.80;;;4.78;;
37407;SDS011;24866;50.248;8.252;2023-04-19T11:25:27;11.65;;;5.80;;
37407;SDS011;24866;50.248;8.252;2023-04-19T11:27:58;7.55;;;5.05;;
37407;SDS011;24866;50.248;8.252;2023-04-19T11:30:30;14.95;;;7.47;;
37407;SDS011;24866;50.248;8.252;2023-04-19T11:33:01;6.47;;;4.72;;
37407;SDS011;24866;50.248;8.252;2023-04-19T11:35:31;10.82;;;5.82;;
37407;SDS011;24866;50.248;8.252;2023-04-19T11:38:01;7.88;;;3.60;;
37407;SDS011;24866;50.248;8.252;2023-04-19T11:40:32;6.78;;;4.15;;
37407;SDS011;24866;50.248;8.252;2023-04-19T11:43:04;7.20;;;4.55;;
37407;SDS011;24866;50.248;8.252;2023-04-19T11:45:36;9.43;;;3.30;;
37407;SDS011;24866;50.248;8.252;2023-04-19T11:48:11;5.88;;;3.58;;
37407;SDS011;24866;50.248;8.252;2023-04-19T11:50:44;7.95;;;4.40;;
37407;SDS011;24866;50.248;8.252;2023-04-19T11:53:17;7.05;;;3.60;;
37407;SDS011;24866;50.248;8.252;2023-04-19T11:55:50;5.22;;;3.20;;
37407;SDS011;24866;50.248;8.252;2023-04-19T11:58:22;5.67;;;3.30;;
37407;SDS011;24866;50.248;8.252;2023-04-19T12:00:55;6.88;;;3.80;;
37407;SDS011;24866;50.248;8.252;2023-04-19T12:03:27;5.97;;;2.72;;
37407;SDS011;24866;50.248;8.252;2023-04-19T12:05:58;5.80;;;2.78;;
37407;SDS011;24866;50.248;8.252;2023-04-19T12:08:32;5.60;;;2.85;;
37407;SDS011;24866;50.248;8.252;2023-04-19T12:11:04;6.10;;;3.28;;
37407;SDS011;24866;50.248;8.252;2023-04-19T12:13:34;4.07;;;2.70;;
37407;SDS011;24866;50.248;8.252;2023-04-19T12:16:06;4.93;;;3.20;;
37407;SDS011;24866;50.248;8.252;2023-04-19T12:18:43;6.85;;;2.83;;
37407;SDS011;24866;50.248;8.252;2023-04-19T12:21:25;5.65;;;3.13;;
37407;SDS011;24866;50.248;8.252;2023-04-19T12:23:56;6.18;;;2.83;;
37407;SDS011;24866;50.248;8.252;2023-04-19T12:26:29;3.63;;;2.23;;
37407;SDS011;24866;50.248;8.252;2023-04-19T12:29:00;4.97;;;2.50;;
37407;SDS011;24866;50.248;8.252;2023-04-19T12:31:33;3.90;;;2.47;;
37407;SDS011;24866;50.248;8.252;2023-04-19T12:34:03;5.47;;;2.75;;
37407;SDS011;24866;50.248;8.252;2023-04-19T12:36:33;8.60;;;3.00;;
37407;SDS011;24866;50.248;8.252;2023-04-19T12:39:03;9.38;;;2.08;;
37407;SDS011;24866;50.248;8.252;2023-04-19T12:41:34;4.10;;;2.00;;
37407;SDS011;24866;50.248;8.252;2023-04-19T12:44:05;4.55;;;1.70;;
37407;SDS011;24866;50.248;8.252;2023-04-19T12:46:37;4.78;;;2.35;;
37407;SDS011;24866;50.248;8.252;2023-04-19T12:49:07;4.35;;;2.25;;
37407;SDS011;24866;50.248;8.252;2023-04-19T12:51:38;3.67;;;1.63;;
37407;SDS011;24866;50.248;8.252;2023-04-19T12:54:09;3.85;;;2.15;;
37407;SDS011;24866;50.248;8.252;2023-04-19T12:56:39;3.08;;;1.67;;
37407;SDS011;24866;50.248;8.252;2023-04-19T12:59:09;3.55;;;1.52;;
37407;SDS011;24866;50.248;8.252;2023-04-19T13:01:41;5.53;;;1.38;;
37407;SDS011;24866;50.248;8.252;2023-04-19T13:04:11;3.65;;;1.60;;
37407;SDS011;24866;50.248;8.252;2023-04-19T13:06:41;4.60;;;1.65;;
37407;SDS011;24866;50.248;8.252;2023-04-19T13:09:11;2.88;;;1.50;;
37407;SDS011;24866;50.248;8.252;2023-04-19T13:11:41;3.13;;;1.50;;
37407;SDS011;24866;50.248;8.252;2023-04-19T13:14:15;4.18;;;1.83;;
37407;SDS011;24866;50.248;8.252;2023-04-19T13:16:46;2.97;;;1.35;;
37407;SDS011;24866;50.248;8.252;2023-04-19T13:19:16;6.85;;;2.00;;
37407;SDS011;24866;50.248;8.252;2023-04-19T13:21:47;4.10;;;1.50;;
37407;SDS011;24866;50.248;8.252;2023-04-19T13:24:17;3.50;;;1.38;;
37407;SDS011;24866;50.248;8.252;2023-04-19T13:26:48;4.85;;;1.67;;
37407;SDS011;24866;50.248;8.252;2023-04-19T13:29:18;4.32;;;1.50;;
37407;SDS011;24866;50.248;8.252;2023-04-19T13:31:49;2.67;;;1.63;;
37407;SDS011;24866;50.248;8.252;2023-04-19T13:34:20;3.05;;;1.67;;
37407;SDS011;24866;50.248;8.252;2023-04-19T13:36:51;4.40;;;1.77;;
37407;SDS011;24866;50.248;8.252;2023-04-19T13:39:22;3.33;;;2.08;;
37407;SDS011;24866;50.248;8.252;2023-04-19T13:41:53;5.45;;;2.10;;
37407;SDS011;24866;50.248;8.252;2023-04-19T13:44:23;3.85;;;1.85;;
37407;SDS011;24866;50.248;8.252;2023-04-19T13:46:54;6.13;;;1.73;;
37407;SDS011;24866;50.248;8.252;2023-04-19T13:49:25;4.03;;;1.38;;
37407;SDS011;24866;50.248;8.252;2023-04-19T13:51:55;4.32;;;1.55;;
37407;SDS011;24866;50.248;8.252;2023-04-19T13:54:26;5.47;;;2.00;;
37407;SDS011;24866;50.248;8.252;2023-04-19T13:56:57;2.00;;;1.23;;
37407;SDS011;24866;50.248;8.252;2023-04-19T13:59:28;16.73;;;3.15;;
37407;SDS011;24866;50.248;8.252;2023-04-19T14:01:59;4.70;;;1.63;;
37407;SDS011;24866;50.248;8.252;2023-04-19T14:04:31;4.05;;;1.85;;
37407;SDS011;24866;50.248;8.252;2023-04-19T14:07:02;3.92;;;2.05;;
37407;SDS011;24866;50.248;8.252;2023-04-19T14:09:32;5.53;;;1.88;;
37407;SDS011;24866;50.248;8.252;2023-04-19T14:12:02;3.58;;;1.60;;
37407;SDS011;24866;50.248;8.252;2023-04-19T14:14:33;3.03;;;1.80;;
37407;SDS011;24866;50.248;8.252;2023-04-19T14:17:05;3.10;;;1.67;;
37407;SDS011;24866;50.248;8.252;2023-04-19T14:19:35;3.05;;;1.38;;
37407;SDS011;24866;50.248;8.252;2023-04-19T14:22:05;3.83;;;1.60;;
37407;SDS011;24866;50.248;8.252;2023-04-19T14:24:35;2.50;;;1.20;;
37407;SDS011;24866;50.248;8.252;2023-04-19T14:27:06;2.90;;;1.30;;
37407;SDS011;24866;50.248;8.252;2023-04-19T14:29:36;3.95;;;1.45;;
37407;SDS011;24866;50.248;8.252;2023-04-19T14:32:08;5.40;;;1.60;;
37407;SDS011;24866;50.248;8.252;2023-04-19T14:34:38;5.63;;;1.30;;
37407;SDS011;24866;50.248;8.252;2023-04-19T14:37:08;3.03;;;1.55;;
37407;SDS011;24866;50.248;8.252;2023-04-19T14:39:38;3.58;;;1.40;;
37407;SDS011;24866;50.248;8.252;2023-04-19T14:42:09;4.93;;;1.80;;
37407;SDS011;24866;50.248;8.252;2023-04-19T14:44:39;2.72;;;1.40;;
37407;SDS011;24866;50.248;8.252;2023-04-19T14:47:11;2.25;;;1.40;;
37407;SDS011;24866;50.248;8.252;2023-04-19T14:49:43;3.88;;;1.50;;
37407;SDS011;24866;50.248;8.252;2023-04-19T14:52:13;3.35;;;1.77;;
37407;SDS011;24866;50.248;8.252;2023-04-19T14:54:44;4.80;;;1.75;;
37407;SDS011;24866;50.248;8.252;2023-04-19T14:57:14;2.95;;;1.48;;
37407;SDS011;24866;50.248;8.252;2023-04-19T14:59:44;4.07;;;1.80;;
37407;SDS011;24866;50.248;8.252;2023-04-19T15:02:15;2.90;;;1.75;;
37407;SDS011;24866;50.248;8.252;2023-04-19T15:04:45;3.38;;;1.75;;
37407;SDS011;24866;50.248;8.252;2023-04-19T15:07:15;3.88;;;1.60;;
37407;SDS011;24866;50.248;8.252;2023-04-19T15:09:46;3.60;;;1.98;;
37407;SDS011;24866;50.248;8.252;2023-04-19T15:12:16;3.10;;;1.48;;
37407;SDS011;24866;50.248;8.252;2023-04-19T15:14:46;4.03;;;1.70;;